Alto, NM

1:28 AM MDT on August 22, 2014 (GMT -0600)
Eagle Creek Canyon | Change Station
CLOSE
Current Station
Personal Weather Station
Location: Ruidoso, NM
Elevation: 7200 ft
Nearby Weather Stations

Elev 7200 ft 33.39 °N, 105.65 °W | Updated 42 seconds ago

Mostly Cloudy
Mostly Cloudy
65.6 °F
Feels Like 65.6 °F
N
2.0
Wind Variable Wind from SSE
Gusts 6.0 mph

Today
High -- | Low -- °F
--% Chance of Precip.
Yesterday
High -- | Low -- °F
Precip. -- in
6:30 AM 7:40 PM
Waning Crescent, 9% visible
Pressure 30.26 in
Visibility 10.0 miles
Clouds Few 9000 ft
Mostly Cloudy 12000 ft
Dew Point 50 °F
Humidity 56%
Rainfall 0.00 in
Snow Depth Not available.
UV 0 out of 12
Pollen 8.20 out of 12
Air Quality Not available.
Flu Activity Not available.
METAR KSRR 220655Z AUTO 23010KT 10SM FEW090 BKN120 20/09 A3026 RMK AO2

More Conditions Fewer Conditions

Pressure 30.26 in
Visibility 10.0 miles
Clouds Few 9000 ft
Mostly Cloudy 12000 ft
Dew Point 50 °F
Humidity 56%
Rainfall 0.00 in
Snow Depth Not available.
UV 0 out of 12
Pollen 8.20 out of 12
Air Quality Not available.
Flu Activity Not available.
METAR KSRR 220655Z AUTO 23010KT 10SM FEW090 BKN120 20/09 A3026 RMK AO2

More Conditions Fewer Conditions

10-Day Weather Forecast

Almanac

Astronomy

Aug. 22, 2014 Rise Set
Actual Time 6:30 AM MDT 7:40 PM MDT
Civil Twilight 6:04 AM MDT 8:06 PM MDT
Nautical Twilight 5:33 AM MDT 8:36 PM MDT
Astronomical Twilight 5:01 AM MDT 9:08 PM MDT
Moon 3:58 AM MDT 5:47 PM MDT
Length of Visible Light 14h 01m
Length of Day
13h 10m
Tomorrow will be 1m 55s shorter.
Waning Crescent, 9% of the Moon is Illuminated
Today
Waning Crescent
Aug 25
New
Sep 2
First Quarter
Sep 8
Full
Sep 15
Last Quarter

Today's Extremes

State Highs State Lows

Community

WunderPhotos

Upload Photos

1,746,131 photos uploaded!

Nearby

Snow Depth

Station Depth Elevation
Sierra Blanca 1 in 10280 ft
McKnight Cabin 0 in 9240 ft
Santa Fe 1 in 11445 ft
Wesner Springs 2 in 11120 ft
Silver Creek Divide 14 in 9000 ft

Earthquake Activity

City Distance Mag. Time & Date
No recent earthquake activity has been reported nearby.
Minimum magnitude displayed is 2.5.

Coastal Water Temperatures

Place Temperature
No Stations Reporting

Nearby Weather Stations